sensor_id;sensor_type;location;lat;lon;timestamp;temperature;humidity
64689;DHT22;62504;46.070;14.492;2023-07-29T00:01:49;20.50;99.90
64689;DHT22;62504;46.070;14.492;2023-07-29T00:04:16;20.50;99.90
64689;DHT22;62504;46.070;14.492;2023-07-29T00:06:42;20.50;99.90
64689;DHT22;62504;46.070;14.492;2023-07-29T00:09:08;20.40;99.90
64689;DHT22;62504;46.070;14.492;2023-07-29T00:11:34;20.50;99.90
64689;DHT22;62504;46.070;14.492;2023-07-29T00:14:01;20.30;99.90
64689;DHT22;62504;46.070;14.492;2023-07-29T00:16:27;20.20;99.90
64689;DHT22;62504;46.070;14.492;2023-07-29T00:18:53;20.30;99.90
64689;DHT22;62504;46.070;14.492;2023-07-29T00:21:18;20.30;99.90
64689;DHT22;62504;46.070;14.492;2023-07-29T00:23:45;20.40;99.90
64689;DHT22;62504;46.070;14.492;2023-07-29T00:26:10;20.30;99.90
64689;DHT22;62504;46.070;14.492;2023-07-29T00:28:36;20.30;99.90
64689;DHT22;62504;46.070;14.492;2023-07-29T00:31:02;20.20;99.90
64689;DHT22;62504;46.070;14.492;2023-07-29T00:33:28;20.20;99.90
64689;DHT22;62504;46.070;14.492;2023-07-29T00:35:53;20.20;99.90
64689;DHT22;62504;46.070;14.492;2023-07-29T00:38:19;20.20;99.90
64689;DHT22;62504;46.070;14.492;2023-07-29T00:40:44;20.10;99.90
64689;DHT22;62504;46.070;14.492;2023-07-29T00:43:10;20.10;99.90
64689;DHT22;62504;46.070;14.492;2023-07-29T00:45:36;20.10;99.90
64689;DHT22;62504;46.070;14.492;2023-07-29T00:48:03;20.10;99.90
64689;DHT22;62504;46.070;14.492;2023-07-29T00:50:31;20.10;99.90
64689;DHT22;62504;46.070;14.492;2023-07-29T00:52:58;20.20;99.90
64689;DHT22;62504;46.070;14.492;2023-07-29T00:55:24;20.10;99.90
64689;DHT22;62504;46.070;14.492;2023-07-29T00:57:51;20.10;99.90
64689;DHT22;62504;46.070;14.492;2023-07-29T01:00:20;20.10;99.90
64689;DHT22;62504;46.070;14.492;2023-07-29T01:02:45;20.10;99.90
64689;DHT22;62504;46.070;14.492;2023-07-29T01:05:15;20.10;99.90
64689;DHT22;62504;46.070;14.492;2023-07-29T01:10:45;20.10;99.90
64689;DHT22;62504;46.070;14.492;2023-07-29T01:13:19;20.00;99.90
64689;DHT22;62504;46.070;14.492;2023-07-29T01:18:29;20.00;99.90
64689;DHT22;62504;46.070;14.492;2023-07-29T01:20:59;20.00;99.90
64689;DHT22;62504;46.070;14.492;2023-07-29T01:23:32;19.90;99.90
64689;DHT22;62504;46.070;14.492;2023-07-29T01:25:57;20.00;99.90
64689;DHT22;62504;46.070;14.492;2023-07-29T01:28:24;20.00;99.90
64689;DHT22;62504;46.070;14.492;2023-07-29T01:30:52;19.90;99.90
64689;DHT22;62504;46.070;14.492;2023-07-29T01:33:26;19.90;99.90
64689;DHT22;62504;46.070;14.492;2023-07-29T01:36:01;19.90;99.90
64689;DHT22;62504;46.070;14.492;2023-07-29T01:38:38;20.00;99.90
64689;DHT22;62504;46.070;14.492;2023-07-29T01:41:07;19.90;99.90
64689;DHT22;62504;46.070;14.492;2023-07-29T01:43:33;19.80;99.90
64689;DHT22;62504;46.070;14.492;2023-07-29T01:46:02;19.70;99.90
64689;DHT22;62504;46.070;14.492;2023-07-29T01:48:28;19.70;99.90
64689;DHT22;62504;46.070;14.492;2023-07-29T01:50:55;19.70;99.90
64689;DHT22;62504;46.070;14.492;2023-07-29T01:53:21;19.70;99.90
64689;DHT22;62504;46.070;14.492;2023-07-29T01:55:47;19.80;99.90
64689;DHT22;62504;46.070;14.492;2023-07-29T01:58:12;19.70;99.90
64689;DHT22;62504;46.070;14.492;2023-07-29T02:00:39;19.50;99.90
64689;DHT22;62504;46.070;14.492;2023-07-29T02:03:05;19.50;99.90
64689;DHT22;62504;46.070;14.492;2023-07-29T02:05:31;19.60;99.90
64689;DHT22;62504;46.070;14.492;2023-07-29T02:07:56;19.70;99.90
64689;DHT22;62504;46.070;14.492;2023-07-29T02:10:22;19.70;99.90
64689;DHT22;62504;46.070;14.492;2023-07-29T02:12:48;19.70;99.90
64689;DHT22;62504;46.070;14.492;2023-07-29T02:15:13;19.70;99.90
64689;DHT22;62504;46.070;14.492;2023-07-29T02:17:41;19.70;99.90
64689;DHT22;62504;46.070;14.492;2023-07-29T02:20:07;19.50;99.90
64689;DHT22;62504;46.070;14.492;2023-07-29T02:22:34;19.60;99.90
64689;DHT22;62504;46.070;14.492;2023-07-29T02:24:59;19.60;99.90
64689;DHT22;62504;46.070;14.492;2023-07-29T02:27:26;19.70;99.90
64689;DHT22;62504;46.070;14.492;2023-07-29T02:29:53;19.60;99.90
64689;DHT22;62504;46.070;14.492;2023-07-29T02:32:19;19.70;99.90
64689;DHT22;62504;46.070;14.492;2023-07-29T02:34:44;19.70;99.90
64689;DHT22;62504;46.070;14.492;2023-07-29T02:37:10;19.70;99.90
64689;DHT22;62504;46.070;14.492;2023-07-29T02:39:36;19.70;99.90
64689;DHT22;62504;46.070;14.492;2023-07-29T02:42:02;19.70;99.90
64689;DHT22;62504;46.070;14.492;2023-07-29T02:44:28;19.70;99.90
64689;DHT22;62504;46.070;14.492;2023-07-29T02:46:53;19.60;99.90
64689;DHT22;62504;46.070;14.492;2023-07-29T02:49:21;19.50;99.90
64689;DHT22;62504;46.070;14.492;2023-07-29T02:51:47;19.60;99.90
64689;DHT22;62504;46.070;14.492;2023-07-29T02:54:12;19.60;99.90
64689;DHT22;62504;46.070;14.492;2023-07-29T02:56:38;19.50;99.90
64689;DHT22;62504;46.070;14.492;2023-07-29T02:59:04;19.60;99.90
64689;DHT22;62504;46.070;14.492;2023-07-29T03:01:30;19.70;99.90
64689;DHT22;62504;46.070;14.492;2023-07-29T03:03:56;19.60;99.90
64689;DHT22;62504;46.070;14.492;2023-07-29T03:06:22;19.60;99.90
64689;DHT22;62504;46.070;14.492;2023-07-29T03:08:47;19.50;99.90
64689;DHT22;62504;46.070;14.492;2023-07-29T03:11:15;19.50;99.90
64689;DHT22;62504;46.070;14.492;2023-07-29T03:13:41;19.40;99.90
64689;DHT22;62504;46.070;14.492;2023-07-29T03:16:09;19.40;99.90
64689;DHT22;62504;46.070;14.492;2023-07-29T03:18:35;19.30;99.90
64689;DHT22;62504;46.070;14.492;2023-07-29T03:21:02;19.30;99.90
64689;DHT22;62504;46.070;14.492;2023-07-29T03:23:28;19.30;99.90
64689;DHT22;62504;46.070;14.492;2023-07-29T03:25:59;19.40;99.90
64689;DHT22;62504;46.070;14.492;2023-07-29T03:28:29;19.50;99.90
64689;DHT22;62504;46.070;14.492;2023-07-29T03:30:56;19.40;99.90
64689;DHT22;62504;46.070;14.492;2023-07-29T03:33:22;19.40;99.90
64689;DHT22;62504;46.070;14.492;2023-07-29T03:35:48;19.30;99.90
64689;DHT22;62504;46.070;14.492;2023-07-29T03:38:14;19.20;99.90
64689;DHT22;62504;46.070;14.492;2023-07-29T03:40:40;19.20;99.90
64689;DHT22;62504;46.070;14.492;2023-07-29T03:43:06;19.20;99.90
64689;DHT22;62504;46.070;14.492;2023-07-29T03:45:32;19.20;99.90
64689;DHT22;62504;46.070;14.492;2023-07-29T03:47:58;19.30;99.90
64689;DHT22;62504;46.070;14.492;2023-07-29T03:50:24;19.30;99.90
64689;DHT22;62504;46.070;14.492;2023-07-29T03:52:50;19.20;99.90
64689;DHT22;62504;46.070;14.492;2023-07-29T03:55:15;19.30;99.90
64689;DHT22;62504;46.070;14.492;2023-07-29T03:57:41;19.20;99.90
64689;DHT22;62504;46.070;14.492;2023-07-29T04:00:07;19.20;99.90
64689;DHT22;62504;46.070;14.492;2023-07-29T04:02:34;19.20;99.90
64689;DHT22;62504;46.070;14.492;2023-07-29T04:05:03;19.30;99.90
64689;DHT22;62504;46.070;14.492;2023-07-29T04:07:30;19.30;99.90
64689;DHT22;62504;46.070;14.492;2023-07-29T04:09:55;19.40;99.90
64689;DHT22;62504;46.070;14.492;2023-07-29T04:12:22;19.40;99.90
64689;DHT22;62504;46.070;14.492;2023-07-29T04:14:49;19.40;99.90
64689;DHT22;62504;46.070;14.492;2023-07-29T04:17:15;19.40;99.90
64689;DHT22;62504;46.070;14.492;2023-07-29T04:19:40;19.30;99.90
64689;DHT22;62504;46.070;14.492;2023-07-29T04:22:06;19.40;99.90
64689;DHT22;62504;46.070;14.492;2023-07-29T04:24:32;19.50;99.90
64689;DHT22;62504;46.070;14.492;2023-07-29T04:26:57;19.50;99.90
64689;DHT22;62504;46.070;14.492;2023-07-29T04:29:23;19.50;99.90
64689;DHT22;62504;46.070;14.492;2023-07-29T04:31:52;19.60;99.90
64689;DHT22;62504;46.070;14.492;2023-07-29T04:34:18;19.50;99.90
64689;DHT22;62504;46.070;14.492;2023-07-29T04:36:45;19.50;99.90
64689;DHT22;62504;46.070;14.492;2023-07-29T04:39:10;19.50;99.90
64689;DHT22;62504;46.070;14.492;2023-07-29T04:41:36;19.50;99.90
64689;DHT22;62504;46.070;14.492;2023-07-29T04:44:02;19.50;99.90
64689;DHT22;62504;46.070;14.492;2023-07-29T04:46:27;19.50;99.90
64689;DHT22;62504;46.070;14.492;2023-07-29T04:48:53;19.50;99.90
64689;DHT22;62504;46.070;14.492;2023-07-29T04:51:18;19.40;99.90
64689;DHT22;62504;46.070;14.492;2023-07-29T04:53:44;19.40;99.90
64689;DHT22;62504;46.070;14.492;2023-07-29T04:56:11;19.50;99.90
64689;DHT22;62504;46.070;14.492;2023-07-29T04:58:36;19.50;99.90
64689;DHT22;62504;46.070;14.492;2023-07-29T05:01:03;19.60;99.90
64689;DHT22;62504;46.070;14.492;2023-07-29T05:03:29;19.70;99.90
64689;DHT22;62504;46.070;14.492;2023-07-29T05:05:55;19.70;99.90
64689;DHT22;62504;46.070;14.492;2023-07-29T05:08:21;19.70;99.90
64689;DHT22;62504;46.070;14.492;2023-07-29T05:10:51;19.70;99.90
64689;DHT22;62504;46.070;14.492;2023-07-29T05:13:17;19.60;99.90
64689;DHT22;62504;46.070;14.492;2023-07-29T05:15:43;19.70;99.90
64689;DHT22;62504;46.070;14.492;2023-07-29T05:18:08;19.60;99.90
64689;DHT22;62504;46.070;14.492;2023-07-29T05:20:34;19.80;99.90
64689;DHT22;62504;46.070;14.492;2023-07-29T05:23:00;19.80;99.90
64689;DHT22;62504;46.070;14.492;2023-07-29T05:25:26;19.80;99.90
64689;DHT22;62504;46.070;14.492;2023-07-29T05:27:52;19.70;99.90
64689;DHT22;62504;46.070;14.492;2023-07-29T05:30:17;19.80;99.90
64689;DHT22;62504;46.070;14.492;2023-07-29T05:32:43;19.90;99.90
64689;DHT22;62504;46.070;14.492;2023-07-29T05:35:10;19.90;99.90
64689;DHT22;62504;46.070;14.492;2023-07-29T05:37:38;19.90;99.90
64689;DHT22;62504;46.070;14.492;2023-07-29T05:40:05;19.90;99.90
64689;DHT22;62504;46.070;14.492;2023-07-29T05:42:31;19.80;99.90
64689;DHT22;62504;46.070;14.492;2023-07-29T05:44:56;19.90;99.90
64689;DHT22;62504;46.070;14.492;2023-07-29T05:47:22;20.00;99.90
64689;DHT22;62504;46.070;14.492;2023-07-29T05:49:47;20.00;99.90
64689;DHT22;62504;46.070;14.492;2023-07-29T05:52:13;20.10;99.90
64689;DHT22;62504;46.070;14.492;2023-07-29T05:54:39;20.20;99.90
64689;DHT22;62504;46.070;14.492;2023-07-29T05:57:04;20.30;99.90
64689;DHT22;62504;46.070;14.492;2023-07-29T05:59:30;20.50;99.90
64689;DHT22;62504;46.070;14.492;2023-07-29T06:01:56;20.60;99.90
64689;DHT22;62504;46.070;14.492;2023-07-29T06:04:22;20.70;99.90
64689;DHT22;62504;46.070;14.492;2023-07-29T06:06:47;20.70;99.90
64689;DHT22;62504;46.070;14.492;2023-07-29T06:09:13;20.70;99.90
64689;DHT22;62504;46.070;14.492;2023-07-29T06:11:38;20.80;99.90
64689;DHT22;62504;46.070;14.492;2023-07-29T06:14:04;20.80;99.90
64689;DHT22;62504;46.070;14.492;2023-07-29T06:16:29;20.90;99.90
64689;DHT22;62504;46.070;14.492;2023-07-29T06:18:55;21.00;99.90
64689;DHT22;62504;46.070;14.492;2023-07-29T06:21:21;21.10;99.90
64689;DHT22;62504;46.070;14.492;2023-07-29T06:23:46;21.20;99.90
64689;DHT22;62504;46.070;14.492;2023-07-29T06:26:12;21.40;99.90
64689;DHT22;62504;46.070;14.492;2023-07-29T06:28:38;21.40;99.90
64689;DHT22;62504;46.070;14.492;2023-07-29T06:31:03;21.50;99.90
64689;DHT22;62504;46.070;14.492;2023-07-29T06:33:29;21.60;99.90
64689;DHT22;62504;46.070;14.492;2023-07-29T06:35:55;21.60;99.90
64689;DHT22;62504;46.070;14.492;2023-07-29T06:38:20;21.70;99.90
64689;DHT22;62504;46.070;14.492;2023-07-29T06:40:50;21.70;99.90
64689;DHT22;62504;46.070;14.492;2023-07-29T06:43:16;21.70;99.90
64689;DHT22;62504;46.070;14.492;2023-07-29T06:45:42;21.70;99.90
64689;DHT22;62504;46.070;14.492;2023-07-29T06:48:08;21.70;99.90
64689;DHT22;62504;46.070;14.492;2023-07-29T06:50:33;21.80;99.90
64689;DHT22;62504;46.070;14.492;2023-07-29T06:52:59;22.00;99.90
64689;DHT22;62504;46.070;14.492;2023-07-29T06:55:25;21.90;99.90
64689;DHT22;62504;46.070;14.492;2023-07-29T06:57:50;22.00;99.90
64689;DHT22;62504;46.070;14.492;2023-07-29T07:00:16;22.10;99.90
64689;DHT22;62504;46.070;14.492;2023-07-29T07:02:42;22.30;99.90
64689;DHT22;62504;46.070;14.492;2023-07-29T07:05:08;22.50;99.90
64689;DHT22;62504;46.070;14.492;2023-07-29T07:07:33;22.50;99.90
64689;DHT22;62504;46.070;14.492;2023-07-29T07:09:59;22.60;99.90
64689;DHT22;62504;46.070;14.492;2023-07-29T07:12:24;22.70;99.90
64689;DHT22;62504;46.070;14.492;2023-07-29T07:14:50;22.60;99.90
64689;DHT22;62504;46.070;14.492;2023-07-29T07:17:16;22.70;99.90
64689;DHT22;62504;46.070;14.492;2023-07-29T07:19:41;22.90;99.90
64689;DHT22;62504;46.070;14.492;2023-07-29T07:22:07;23.00;99.90
64689;DHT22;62504;46.070;14.492;2023-07-29T07:24:33;23.30;99.90
64689;DHT22;62504;46.070;14.492;2023-07-29T07:26:58;23.70;99.90
64689;DHT22;62504;46.070;14.492;2023-07-29T07:29:24;24.20;99.90
64689;DHT22;62504;46.070;14.492;2023-07-29T07:31:53;24.60;99.90
64689;DHT22;62504;46.070;14.492;2023-07-29T07:34:22;25.00;99.90
64689;DHT22;62504;46.070;14.492;2023-07-29T07:36:48;25.00;99.90
64689;DHT22;62504;46.070;14.492;2023-07-29T07:39:14;25.00;99.90
64689;DHT22;62504;46.070;14.492;2023-07-29T07:41:41;24.60;99.90
64689;DHT22;62504;46.070;14.492;2023-07-29T07:44:07;24.30;99.90
64689;DHT22;62504;46.070;14.492;2023-07-29T07:46:33;24.40;99.90
64689;DHT22;62504;46.070;14.492;2023-07-29T07:48:58;25.00;99.90
64689;DHT22;62504;46.070;14.492;2023-07-29T07:51:24;25.80;99.90
64689;DHT22;62504;46.070;14.492;2023-07-29T07:53:50;26.10;99.90
64689;DHT22;62504;46.070;14.492;2023-07-29T07:56:15;25.70;99.90
64689;DHT22;62504;46.070;14.492;2023-07-29T07:58:41;25.60;99.90
64689;DHT22;62504;46.070;14.492;2023-07-29T08:01:08;25.30;99.90
64689;DHT22;62504;46.070;14.492;2023-07-29T08:03:34;25.10;99.90
64689;DHT22;62504;46.070;14.492;2023-07-29T08:06:00;25.10;99.90
64689;DHT22;62504;46.070;14.492;2023-07-29T08:08:27;25.40;99.90
64689;DHT22;62504;46.070;14.492;2023-07-29T08:10:53;25.70;99.90
64689;DHT22;62504;46.070;14.492;2023-07-29T08:13:20;26.00;99.90
64689;DHT22;62504;46.070;14.492;2023-07-29T08:15:50;26.50;99.90
64689;DHT22;62504;46.070;14.492;2023-07-29T08:18:16;26.80;99.90
64689;DHT22;62504;46.070;14.492;2023-07-29T08:20:52;27.10;99.90
64689;DHT22;62504;46.070;14.492;2023-07-29T08:23:18;27.40;99.90
64689;DHT22;62504;46.070;14.492;2023-07-29T08:25:43;27.60;99.90
64689;DHT22;62504;46.070;14.492;2023-07-29T08:28:09;27.70;99.90
64689;DHT22;62504;46.070;14.492;2023-07-29T08:30:36;27.80;99.90
64689;DHT22;62504;46.070;14.492;2023-07-29T08:33:02;27.60;99.90
64689;DHT22;62504;46.070;14.492;2023-07-29T08:35:27;27.50;99.90
64689;DHT22;62504;46.070;14.492;2023-07-29T08:37:53;27.20;99.90
64689;DHT22;62504;46.070;14.492;2023-07-29T08:40:23;26.70;99.90
64689;DHT22;62504;46.070;14.492;2023-07-29T08:42:51;26.20;99.90
64689;DHT22;62504;46.070;14.492;2023-07-29T08:45:17;25.80;99.90
64689;DHT22;62504;46.070;14.492;2023-07-29T08:47:43;25.60;99.90
64689;DHT22;62504;46.070;14.492;2023-07-29T08:50:09;25.50;99.90
64689;DHT22;62504;46.070;14.492;2023-07-29T08:52:36;25.40;99.90
64689;DHT22;62504;46.070;14.492;2023-07-29T08:55:02;25.10;99.90
64689;DHT22;62504;46.070;14.492;2023-07-29T08:57:28;25.10;99.90
64689;DHT22;62504;46.070;14.492;2023-07-29T08:59:55;25.00;99.90
64689;DHT22;62504;46.070;14.492;2023-07-29T09:02:21;25.10;99.90
64689;DHT22;62504;46.070;14.492;2023-07-29T09:04:47;25.10;99.90
64689;DHT22;62504;46.070;14.492;2023-07-29T09:07:13;25.00;99.90
64689;DHT22;62504;46.070;14.492;2023-07-29T09:09:39;25.10;99.90
64689;DHT22;62504;46.070;14.492;2023-07-29T09:12:06;25.10;99.90
64689;DHT22;62504;46.070;14.492;2023-07-29T09:14:31;25.10;99.90
64689;DHT22;62504;46.070;14.492;2023-07-29T09:16:57;25.20;99.90
64689;DHT22;62504;46.070;14.492;2023-07-29T09:19:25;25.20;99.90
64689;DHT22;62504;46.070;14.492;2023-07-29T09:21:52;25.20;99.90
64689;DHT22;62504;46.070;14.492;2023-07-29T09:24:18;25.30;99.90
64689;DHT22;62504;46.070;14.492;2023-07-29T09:26:50;25.40;99.90
64689;DHT22;62504;46.070;14.492;2023-07-29T09:29:22;25.50;99.90
64689;DHT22;62504;46.070;14.492;2023-07-29T09:31:47;25.50;99.90
64689;DHT22;62504;46.070;14.492;2023-07-29T09:34:15;25.50;99.90
64689;DHT22;62504;46.070;14.492;2023-07-29T09:36:42;25.50;99.90
64689;DHT22;62504;46.070;14.492;2023-07-29T09:39:12;25.50;99.90
64689;DHT22;62504;46.070;14.492;2023-07-29T09:41:38;25.60;99.90
64689;DHT22;62504;46.070;14.492;2023-07-29T09:44:04;25.60;99.90
64689;DHT22;62504;46.070;14.492;2023-07-29T09:46:36;25.70;99.90
64689;DHT22;62504;46.070;14.492;2023-07-29T09:49:03;25.80;99.90
64689;DHT22;62504;46.070;14.492;2023-07-29T09:51:29;25.90;99.90
64689;DHT22;62504;46.070;14.492;2023-07-29T09:53:55;25.90;99.90
64689;DHT22;62504;46.070;14.492;2023-07-29T09:56:25;25.90;99.90
64689;DHT22;62504;46.070;14.492;2023-07-29T09:58:51;26.00;99.90
64689;DHT22;62504;46.070;14.492;2023-07-29T10:01:17;26.00;99.90
64689;DHT22;62504;46.070;14.492;2023-07-29T10:03:44;26.00;99.90
64689;DHT22;62504;46.070;14.492;2023-07-29T10:06:10;26.00;99.90
64689;DHT22;62504;46.070;14.492;2023-07-29T10:08:36;26.10;99.90
64689;DHT22;62504;46.070;14.492;2023-07-29T10:11:06;26.20;99.90
64689;DHT22;62504;46.070;14.492;2023-07-29T10:13:33;26.20;99.90
64689;DHT22;62504;46.070;14.492;2023-07-29T10:15:59;26.20;99.90
64689;DHT22;62504;46.070;14.492;2023-07-29T10:18:28;26.20;99.90
64689;DHT22;62504;46.070;14.492;2023-07-29T10:20:54;26.00;99.90
64689;DHT22;62504;46.070;14.492;2023-07-29T10:23:22;26.00;99.90
64689;DHT22;62504;46.070;14.492;2023-07-29T10:26:02;26.00;99.90
64689;DHT22;62504;46.070;14.492;2023-07-29T10:28:32;26.10;99.90
64689;DHT22;62504;46.070;14.492;2023-07-29T10:30:58;26.10;99.90
64689;DHT22;62504;46.070;14.492;2023-07-29T10:33:25;26.10;99.90
64689;DHT22;62504;46.070;14.492;2023-07-29T10:35:52;26.10;99.90
64689;DHT22;62504;46.070;14.492;2023-07-29T10:38:20;26.20;99.90
64689;DHT22;62504;46.070;14.492;2023-07-29T10:40:57;26.30;99.90
64689;DHT22;62504;46.070;14.492;2023-07-29T10:43:26;26.30;99.90
64689;DHT22;62504;46.070;14.492;2023-07-29T10:45:52;26.30;99.90
64689;DHT22;62504;46.070;14.492;2023-07-29T10:51:31;26.10;99.90
64689;DHT22;62504;46.070;14.492;2023-07-29T10:54:10;26.10;99.90
64689;DHT22;62504;46.070;14.492;2023-07-29T10:56:39;26.20;99.90
64689;DHT22;62504;46.070;14.492;2023-07-29T11:01:40;26.40;99.90
64689;DHT22;62504;46.070;14.492;2023-07-29T11:10:05;26.50;99.90
64689;DHT22;62504;46.070;14.492;2023-07-29T11:12:41;26.40;99.90
64689;DHT22;62504;46.070;14.492;2023-07-29T11:17:41;26.50;99.90
64689;DHT22;62504;46.070;14.492;2023-07-29T11:20:08;26.70;99.90
64689;DHT22;62504;46.070;14.492;2023-07-29T11:22:34;26.80;99.90
64689;DHT22;62504;46.070;14.492;2023-07-29T11:25:00;26.90;99.90
64689;DHT22;62504;46.070;14.492;2023-07-29T11:27:25;27.00;99.90
64689;DHT22;62504;46.070;14.492;2023-07-29T11:29:57;27.00;99.90
64689;DHT22;62504;46.070;14.492;2023-07-29T11:32:24;27.00;99.90
64689;DHT22;62504;46.070;14.492;2023-07-29T11:34:50;27.00;99.90
64689;DHT22;62504;46.070;14.492;2023-07-29T11:37:16;26.80;99.90
64689;DHT22;62504;46.070;14.492;2023-07-29T11:39:42;26.80;99.90
64689;DHT22;62504;46.070;14.492;2023-07-29T11:42:11;26.90;99.90
64689;DHT22;62504;46.070;14.492;2023-07-29T11:44:37;27.10;99.90
64689;DHT22;62504;46.070;14.492;2023-07-29T11:47:12;27.20;99.90
64689;DHT22;62504;46.070;14.492;2023-07-29T11:49:40;27.30;99.90
64689;DHT22;62504;46.070;14.492;2023-07-29T11:52:07;27.10;99.90
64689;DHT22;62504;46.070;14.492;2023-07-29T11:54:35;27.10;99.90
64689;DHT22;62504;46.070;14.492;2023-07-29T11:57:01;27.00;99.90
64689;DHT22;62504;46.070;14.492;2023-07-29T11:59:27;27.10;99.90
64689;DHT22;62504;46.070;14.492;2023-07-29T12:01:54;27.20;99.90
64689;DHT22;62504;46.070;14.492;2023-07-29T12:04:19;27.10;99.90
64689;DHT22;62504;46.070;14.492;2023-07-29T12:06:45;27.00;99.90
64689;DHT22;62504;46.070;14.492;2023-07-29T12:09:13;27.10;99.90
64689;DHT22;62504;46.070;14.492;2023-07-29T12:11:47;27.20;99.90
64689;DHT22;62504;46.070;14.492;2023-07-29T12:14:13;27.10;99.90
64689;DHT22;62504;46.070;14.492;2023-07-29T12:16:43;27.30;99.90
64689;DHT22;62504;46.070;14.492;2023-07-29T12:19:11;27.20;99.90
64689;DHT22;62504;46.070;14.492;2023-07-29T12:21:37;27.00;99.90
64689;DHT22;62504;46.070;14.492;2023-07-29T12:24:03;26.90;99.90
64689;DHT22;62504;46.070;14.492;2023-07-29T12:26:29;27.00;99.90
64689;DHT22;62504;46.070;14.492;2023-07-29T12:28:55;27.00;99.90
64689;DHT22;62504;46.070;14.492;2023-07-29T12:31:27;27.10;99.90
64689;DHT22;62504;46.070;14.492;2023-07-29T12:33:56;27.10;99.90
64689;DHT22;62504;46.070;14.492;2023-07-29T12:36:22;27.20;99.90
64689;DHT22;62504;46.070;14.492;2023-07-29T12:38:47;27.20;99.90
64689;DHT22;62504;46.070;14.492;2023-07-29T12:41:13;27.30;99.90
64689;DHT22;62504;46.070;14.492;2023-07-29T12:43:39;27.20;99.90
64689;DHT22;62504;46.070;14.492;2023-07-29T12:46:04;27.10;99.90
64689;DHT22;62504;46.070;14.492;2023-07-29T12:48:30;27.30;99.90
64689;DHT22;62504;46.070;14.492;2023-07-29T12:50:55;27.50;99.90
64689;DHT22;62504;46.070;14.492;2023-07-29T12:53:21;27.40;99.90
64689;DHT22;62504;46.070;14.492;2023-07-29T12:55:47;27.50;99.90
64689;DHT22;62504;46.070;14.492;2023-07-29T12:58:12;27.40;99.90
64689;DHT22;62504;46.070;14.492;2023-07-29T13:00:38;27.30;99.90
64689;DHT22;62504;46.070;14.492;2023-07-29T13:03:04;27.20;99.90
64689;DHT22;62504;46.070;14.492;2023-07-29T13:05:31;27.30;99.90
64689;DHT22;62504;46.070;14.492;2023-07-29T13:07:56;27.40;99.90
64689;DHT22;62504;46.070;14.492;2023-07-29T13:10:22;27.30;99.90
64689;DHT22;62504;46.070;14.492;2023-07-29T13:12:48;27.30;99.90
64689;DHT22;62504;46.070;14.492;2023-07-29T13:15:14;27.30;99.90
64689;DHT22;62504;46.070;14.492;2023-07-29T13:17:39;27.30;99.90
64689;DHT22;62504;46.070;14.492;2023-07-29T13:20:07;27.20;99.90
64689;DHT22;62504;46.070;14.492;2023-07-29T13:22:32;27.10;99.90
64689;DHT22;62504;46.070;14.492;2023-07-29T13:24:58;27.10;99.90
64689;DHT22;62504;46.070;14.492;2023-07-29T13:27:23;27.20;99.90
64689;DHT22;62504;46.070;14.492;2023-07-29T13:29:50;27.10;99.90
64689;DHT22;62504;46.070;14.492;2023-07-29T13:32:16;27.10;99.90
64689;DHT22;62504;46.070;14.492;2023-07-29T13:34:41;27.10;99.90
64689;DHT22;62504;46.070;14.492;2023-07-29T13:37:07;27.10;99.90
64689;DHT22;62504;46.070;14.492;2023-07-29T13:39:33;27.10;99.90
64689;DHT22;62504;46.070;14.492;2023-07-29T13:41:58;27.10;99.90
64689;DHT22;62504;46.070;14.492;2023-07-29T13:44:24;27.10;99.90
64689;DHT22;62504;46.070;14.492;2023-07-29T13:46:50;27.10;99.90
64689;DHT22;62504;46.070;14.492;2023-07-29T13:49:15;27.10;99.90
64689;DHT22;62504;46.070;14.492;2023-07-29T13:51:41;27.10;99.90
64689;DHT22;62504;46.070;14.492;2023-07-29T13:54:08;27.20;99.90
64689;DHT22;62504;46.070;14.492;2023-07-29T13:56:33;27.20;99.90
64689;DHT22;62504;46.070;14.492;2023-07-29T13:58:59;27.10;99.90
64689;DHT22;62504;46.070;14.492;2023-07-29T14:01:24;27.10;99.90
64689;DHT22;62504;46.070;14.492;2023-07-29T14:03:50;27.30;99.90
64689;DHT22;62504;46.070;14.492;2023-07-29T14:06:16;27.20;99.90
64689;DHT22;62504;46.070;14.492;2023-07-29T14:08:41;27.20;99.90
64689;DHT22;62504;46.070;14.492;2023-07-29T14:11:07;27.10;99.90
64689;DHT22;62504;46.070;14.492;2023-07-29T14:13:33;27.00;99.90
64689;DHT22;62504;46.070;14.492;2023-07-29T14:16:01;27.00;99.90
64689;DHT22;62504;46.070;14.492;2023-07-29T14:18:27;26.90;99.90
64689;DHT22;62504;46.070;14.492;2023-07-29T14:20:53;26.90;99.90
64689;DHT22;62504;46.070;14.492;2023-07-29T14:23:19;26.90;99.90
64689;DHT22;62504;46.070;14.492;2023-07-29T14:25:44;26.90;99.90
64689;DHT22;62504;46.070;14.492;2023-07-29T14:28:10;26.90;99.90
64689;DHT22;62504;46.070;14.492;2023-07-29T14:30:35;27.00;99.90
64689;DHT22;62504;46.070;14.492;2023-07-29T14:33:03;26.90;99.90
64689;DHT22;62504;46.070;14.492;2023-07-29T14:35:28;26.90;99.90
64689;DHT22;62504;46.070;14.492;2023-07-29T14:37:54;26.90;99.90
64689;DHT22;62504;46.070;14.492;2023-07-29T14:40:19;26.90;99.90
64689;DHT22;62504;46.070;14.492;2023-07-29T14:42:45;26.90;99.90
64689;DHT22;62504;46.070;14.492;2023-07-29T14:45:10;27.00;99.90
64689;DHT22;62504;46.070;14.492;2023-07-29T14:47:36;27.00;99.90
64689;DHT22;62504;46.070;14.492;2023-07-29T14:50:02;27.00;99.90
64689;DHT22;62504;46.070;14.492;2023-07-29T14:52:27;27.00;99.90
64689;DHT22;62504;46.070;14.492;2023-07-29T14:54:53;27.00;99.90
64689;DHT22;62504;46.070;14.492;2023-07-29T14:57:19;27.00;99.90
64689;DHT22;62504;46.070;14.492;2023-07-29T14:59:44;26.90;99.90
64689;DHT22;62504;46.070;14.492;2023-07-29T15:02:10;26.90;99.90
64689;DHT22;62504;46.070;14.492;2023-07-29T15:04:35;26.90;99.90
64689;DHT22;62504;46.070;14.492;2023-07-29T15:07:02;26.90;99.90
64689;DHT22;62504;46.070;14.492;2023-07-29T15:09:27;26.90;99.90
64689;DHT22;62504;46.070;14.492;2023-07-29T15:11:53;26.90;99.90
64689;DHT22;62504;46.070;14.492;2023-07-29T15:14:19;26.90;99.90
64689;DHT22;62504;46.070;14.492;2023-07-29T15:16:44;26.90;99.90
64689;DHT22;62504;46.070;14.492;2023-07-29T15:19:10;26.90;99.90
64689;DHT22;62504;46.070;14.492;2023-07-29T15:21:35;26.80;99.90
64689;DHT22;62504;46.070;14.492;2023-07-29T15:24:01;26.80;99.90
64689;DHT22;62504;46.070;14.492;2023-07-29T15:26:27;26.80;99.90
64689;DHT22;62504;46.070;14.492;2023-07-29T15:28:53;26.80;99.90
64689;DHT22;62504;46.070;14.492;2023-07-29T15:31:19;26.80;99.90